Sibel J — 5IM270 — position and weather

sailwx.info

Track history (hours):
 
Tides and Currents Weather Stations Pressure Air Temp Water Temp Dewpoint Dewpoint Depression Visibility Wind Speed Wind Dir Waves Ship Positions

Sibel J

Last reported at 2015-Apr-24 12:32 UTC. Time now 2015-May-03 10:49 UTC.
Position N 40°55' E 028°47'.
Warning: this ship's position is 8 days out of date.

Length 100 m; draft 2.5 m.

Type: Cargo ship. MMSI: 677017000.

Date/timePositionNaut miles runAvg speedWind from/ knotsBaromVisibWave heightAir tempDewpointWater temp
2015-Apr-24 12:32N 40°55' E 028°47'9 7.9
2015-Apr-24 11:27N 40°58' E 028°57'11 9.4
2015-Apr-24 10:15N 41°07' E 029°05'  
2015-Apr-15 20:32N 42°01' E 029°07'9 8.9
2015-Apr-15 19:33N 41°53' E 029°08'9 9.1
2015-Apr-15 18:33N 41°44' E 029°09'18 9.1
2015-Apr-15 16:33N 41°26' E 029°11'43 6.0
2015-Apr-15 09:27N 40°46' E 028°52'0 0.4
2015-Apr-15 08:29N 40°46' E 028°52'0 0.5
2015-Apr-15 07:33N 40°47' E 028°52'1 0.7
2015-Apr-15 06:33N 40°47' E 028°53'1 0.9
2015-Apr-15 05:26N 40°48' E 028°54'1 0.8
2015-Apr-15 04:31N 40°48' E 028°55'1 0.9
2015-Apr-15 03:29N 40°49' E 028°55'1 1.4
2015-Apr-15 02:32N 40°49' E 028°54'  
Track history (hours):
 
Tides and Currents Weather Stations Pressure Air Temp Water Temp Dewpoint Dewpoint Depression Visibility Wind Speed Wind Dir Waves Ship Positions

Sibel J

Last reported at 2015-Apr-24 12:32 UTC. Time now 2015-May-03 10:49 UTC.
Position N 40°55' E 028°47'.
Warning: this ship's position is 8 days out of date.

Length 100 m; draft 2.5 m.

Type: Cargo ship. MMSI: 677017000.

Date/timePositionNaut miles runAvg speedWind from/ knotsBaromVisibWave heightAir tempDewpointWater temp
2015-Apr-24 12:32N 40°55' E 028°47'9 7.9
2015-Apr-24 11:27N 40°58' E 028°57'11 9.4
2015-Apr-24 10:15N 41°07' E 029°05'  
2015-Apr-15 20:32N 42°01' E 029°07'9 8.9
2015-Apr-15 19:33N 41°53' E 029°08'9 9.1
2015-Apr-15 18:33N 41°44' E 029°09'18 9.1
2015-Apr-15 16:33N 41°26' E 029°11'43 6.0
2015-Apr-15 09:27N 40°46' E 028°52'0 0.4
2015-Apr-15 08:29N 40°46' E 028°52'0 0.5
2015-Apr-15 07:33N 40°47' E 028°52'1 0.7
2015-Apr-15 06:33N 40°47' E 028°53'1 0.9
2015-Apr-15 05:26N 40°48' E 028°54'1 0.8
2015-Apr-15 04:31N 40°48' E 028°55'1 0.9
2015-Apr-15 03:29N 40°49' E 028°55'1 1.4
2015-Apr-15 02:32N 40°49' E 028°54'  

Dump ship's entire track history